sensor_id;sensor_type;location;lat;lon;timestamp;temperature;humidity
45435;DHT22;31183;47.404;8.500;2023-04-03T00:01:34;9.00;99.90
45435;DHT22;31183;47.404;8.500;2023-04-03T00:04:01;9.00;99.90
45435;DHT22;31183;47.404;8.500;2023-04-03T00:06:28;8.90;99.90
45435;DHT22;31183;47.404;8.500;2023-04-03T00:08:54;8.90;99.90
45435;DHT22;31183;47.404;8.500;2023-04-03T00:11:21;8.80;99.90
45435;DHT22;31183;47.404;8.500;2023-04-03T00:13:48;8.70;99.90
45435;DHT22;31183;47.404;8.500;2023-04-03T00:16:14;8.70;99.90
45435;DHT22;31183;47.404;8.500;2023-04-03T00:18:41;8.80;99.90
45435;DHT22;31183;47.404;8.500;2023-04-03T00:21:09;8.80;99.90
45435;DHT22;31183;47.404;8.500;2023-04-03T00:23:36;8.80;99.90
45435;DHT22;31183;47.404;8.500;2023-04-03T00:26:02;8.70;99.90
45435;DHT22;31183;47.404;8.500;2023-04-03T00:28:29;8.70;99.90
45435;DHT22;31183;47.404;8.500;2023-04-03T00:30:55;8.60;99.90
45435;DHT22;31183;47.404;8.500;2023-04-03T00:33:22;8.60;99.90
45435;DHT22;31183;47.404;8.500;2023-04-03T00:35:50;8.50;99.90
45435;DHT22;31183;47.404;8.500;2023-04-03T00:38:17;8.50;99.90
45435;DHT22;31183;47.404;8.500;2023-04-03T00:40:45;8.50;99.90
45435;DHT22;31183;47.404;8.500;2023-04-03T00:43:13;8.50;99.90
45435;DHT22;31183;47.404;8.500;2023-04-03T00:45:43;8.50;99.90
45435;DHT22;31183;47.404;8.500;2023-04-03T00:48:14;8.50;99.90
45435;DHT22;31183;47.404;8.500;2023-04-03T00:50:41;8.50;99.90
45435;DHT22;31183;47.404;8.500;2023-04-03T00:53:10;8.50;99.90
45435;DHT22;31183;47.404;8.500;2023-04-03T00:55:37;8.50;99.90
45435;DHT22;31183;47.404;8.500;2023-04-03T00:58:05;8.40;99.90
45435;DHT22;31183;47.404;8.500;2023-04-03T01:00:33;8.30;99.90
45435;DHT22;31183;47.404;8.500;2023-04-03T01:03:00;8.20;99.90
45435;DHT22;31183;47.404;8.500;2023-04-03T01:05:27;8.10;99.90
45435;DHT22;31183;47.404;8.500;2023-04-03T01:07:53;8.00;99.90
45435;DHT22;31183;47.404;8.500;2023-04-03T01:10:20;8.00;99.90
45435;DHT22;31183;47.404;8.500;2023-04-03T01:12:49;7.90;99.90
45435;DHT22;31183;47.404;8.500;2023-04-03T01:15:21;7.90;99.90
45435;DHT22;31183;47.404;8.500;2023-04-03T01:17:55;7.90;99.90
45435;DHT22;31183;47.404;8.500;2023-04-03T01:25:43;7.70;99.90
45435;DHT22;31183;47.404;8.500;2023-04-03T01:28:11;7.70;99.90
45435;DHT22;31183;47.404;8.500;2023-04-03T01:30:49;7.60;99.90
45435;DHT22;31183;47.404;8.500;2023-04-03T01:33:16;7.50;99.90
45435;DHT22;31183;47.404;8.500;2023-04-03T01:35:43;7.50;99.90
45435;DHT22;31183;47.404;8.500;2023-04-03T01:38:09;7.40;99.90
45435;DHT22;31183;47.404;8.500;2023-04-03T01:40:37;7.50;99.90
45435;DHT22;31183;47.404;8.500;2023-04-03T01:43:04;7.40;99.90
45435;DHT22;31183;47.404;8.500;2023-04-03T01:45:30;7.20;99.90
45435;DHT22;31183;47.404;8.500;2023-04-03T01:47:57;7.20;99.90
45435;DHT22;31183;47.404;8.500;2023-04-03T01:50:24;7.30;99.90
45435;DHT22;31183;47.404;8.500;2023-04-03T01:52:50;7.30;99.90
45435;DHT22;31183;47.404;8.500;2023-04-03T01:55:17;7.30;99.90
45435;DHT22;31183;47.404;8.500;2023-04-03T01:57:43;7.30;99.90
45435;DHT22;31183;47.404;8.500;2023-04-03T02:00:10;7.40;99.90
45435;DHT22;31183;47.404;8.500;2023-04-03T02:02:36;7.40;99.90
45435;DHT22;31183;47.404;8.500;2023-04-03T02:05:03;7.30;99.90
45435;DHT22;31183;47.404;8.500;2023-04-03T02:07:29;7.20;99.90
45435;DHT22;31183;47.404;8.500;2023-04-03T02:09:56;7.10;99.90
45435;DHT22;31183;47.404;8.500;2023-04-03T02:12:22;7.00;99.90
45435;DHT22;31183;47.404;8.500;2023-04-03T02:14:49;6.90;99.90
45435;DHT22;31183;47.404;8.500;2023-04-03T02:17:16;6.90;99.90
45435;DHT22;31183;47.404;8.500;2023-04-03T02:19:42;6.80;99.90
45435;DHT22;31183;47.404;8.500;2023-04-03T02:22:09;6.80;99.90
45435;DHT22;31183;47.404;8.500;2023-04-03T02:24:35;6.80;99.90
45435;DHT22;31183;47.404;8.500;2023-04-03T02:27:02;6.70;99.90
45435;DHT22;31183;47.404;8.500;2023-04-03T02:29:28;6.80;99.90
45435;DHT22;31183;47.404;8.500;2023-04-03T02:31:55;6.80;99.90
45435;DHT22;31183;47.404;8.500;2023-04-03T02:34:22;6.80;99.90
45435;DHT22;31183;47.404;8.500;2023-04-03T02:36:48;6.90;99.90
45435;DHT22;31183;47.404;8.500;2023-04-03T02:39:15;6.90;99.90
45435;DHT22;31183;47.404;8.500;2023-04-03T02:41:42;6.90;99.90
45435;DHT22;31183;47.404;8.500;2023-04-03T02:44:09;6.80;99.90
45435;DHT22;31183;47.404;8.500;2023-04-03T02:46:36;6.90;99.90
45435;DHT22;31183;47.404;8.500;2023-04-03T02:49:03;6.80;99.90
45435;DHT22;31183;47.404;8.500;2023-04-03T02:51:30;6.90;99.90
45435;DHT22;31183;47.404;8.500;2023-04-03T02:53:56;6.80;99.90
45435;DHT22;31183;47.404;8.500;2023-04-03T02:56:23;6.80;99.90
45435;DHT22;31183;47.404;8.500;2023-04-03T02:58:49;6.80;99.90
45435;DHT22;31183;47.404;8.500;2023-04-03T03:01:16;6.90;99.90
45435;DHT22;31183;47.404;8.500;2023-04-03T03:03:42;6.90;99.90
45435;DHT22;31183;47.404;8.500;2023-04-03T03:06:10;6.80;99.90
45435;DHT22;31183;47.404;8.500;2023-04-03T03:08:37;6.80;99.90
45435;DHT22;31183;47.404;8.500;2023-04-03T03:11:04;6.70;99.90
45435;DHT22;31183;47.404;8.500;2023-04-03T03:13:31;6.70;99.90
45435;DHT22;31183;47.404;8.500;2023-04-03T03:15:57;6.70;99.90
45435;DHT22;31183;47.404;8.500;2023-04-03T03:18:24;6.70;99.90
45435;DHT22;31183;47.404;8.500;2023-04-03T03:20:55;6.80;99.90
45435;DHT22;31183;47.404;8.500;2023-04-03T03:23:22;6.70;99.80
45435;DHT22;31183;47.404;8.500;2023-04-03T03:25:49;6.60;99.90
45435;DHT22;31183;47.404;8.500;2023-04-03T03:28:16;6.60;99.90
45435;DHT22;31183;47.404;8.500;2023-04-03T03:30:42;6.50;99.90
45435;DHT22;31183;47.404;8.500;2023-04-03T03:33:09;6.50;99.50
45435;DHT22;31183;47.404;8.500;2023-04-03T03:35:35;6.40;99.90
45435;DHT22;31183;47.404;8.500;2023-04-03T03:38:02;6.40;99.80
45435;DHT22;31183;47.404;8.500;2023-04-03T03:40:29;6.40;99.70
45435;DHT22;31183;47.404;8.500;2023-04-03T03:42:55;6.40;98.80
45435;DHT22;31183;47.404;8.500;2023-04-03T03:45:22;6.30;99.00
45435;DHT22;31183;47.404;8.500;2023-04-03T03:47:48;6.10;99.00
45435;DHT22;31183;47.404;8.500;2023-04-03T03:50:15;6.10;98.90
45435;DHT22;31183;47.404;8.500;2023-04-03T03:52:41;6.10;99.00
45435;DHT22;31183;47.404;8.500;2023-04-03T03:55:08;6.10;98.30
45435;DHT22;31183;47.404;8.500;2023-04-03T03:57:34;6.00;98.40
45435;DHT22;31183;47.404;8.500;2023-04-03T04:00:01;5.90;98.20
45435;DHT22;31183;47.404;8.500;2023-04-03T04:02:28;5.90;99.20
45435;DHT22;31183;47.404;8.500;2023-04-03T04:04:54;5.90;98.50
45435;DHT22;31183;47.404;8.500;2023-04-03T04:07:21;6.00;98.30
45435;DHT22;31183;47.404;8.500;2023-04-03T04:09:47;5.90;98.20
45435;DHT22;31183;47.404;8.500;2023-04-03T04:12:14;5.90;97.60
45435;DHT22;31183;47.404;8.500;2023-04-03T04:14:40;5.70;97.70
45435;DHT22;31183;47.404;8.500;2023-04-03T04:17:07;5.60;97.40
45435;DHT22;31183;47.404;8.500;2023-04-03T04:19:34;5.50;97.20
45435;DHT22;31183;47.404;8.500;2023-04-03T04:22:00;5.40;97.60
45435;DHT22;31183;47.404;8.500;2023-04-03T04:24:27;5.40;98.00
45435;DHT22;31183;47.404;8.500;2023-04-03T04:26:53;5.40;97.30
45435;DHT22;31183;47.404;8.500;2023-04-03T04:29:20;5.50;97.40
45435;DHT22;31183;47.404;8.500;2023-04-03T04:31:46;5.50;97.60
45435;DHT22;31183;47.404;8.500;2023-04-03T04:34:13;5.60;97.00
45435;DHT22;31183;47.404;8.500;2023-04-03T04:36:39;5.60;96.90
45435;DHT22;31183;47.404;8.500;2023-04-03T04:39:06;5.60;97.30
45435;DHT22;31183;47.404;8.500;2023-04-03T04:41:32;5.70;97.30
45435;DHT22;31183;47.404;8.500;2023-04-03T04:43:59;5.80;97.90
45435;DHT22;31183;47.404;8.500;2023-04-03T04:46:26;5.90;96.20
45435;DHT22;31183;47.404;8.500;2023-04-03T04:48:52;5.80;96.50
45435;DHT22;31183;47.404;8.500;2023-04-03T04:51:19;5.70;96.70
45435;DHT22;31183;47.404;8.500;2023-04-03T04:53:45;5.70;95.20
45435;DHT22;31183;47.404;8.500;2023-04-03T04:56:12;5.60;95.90
45435;DHT22;31183;47.404;8.500;2023-04-03T04:58:38;5.70;96.40
45435;DHT22;31183;47.404;8.500;2023-04-03T05:01:06;5.70;95.70
45435;DHT22;31183;47.404;8.500;2023-04-03T05:03:33;5.80;94.70
45435;DHT22;31183;47.404;8.500;2023-04-03T05:06:00;5.80;94.90
45435;DHT22;31183;47.404;8.500;2023-04-03T05:08:26;5.80;94.40
45435;DHT22;31183;47.404;8.500;2023-04-03T05:10:53;5.70;94.00
45435;DHT22;31183;47.404;8.500;2023-04-03T05:13:21;5.70;93.70
45435;DHT22;31183;47.404;8.500;2023-04-03T05:15:48;5.70;94.00
45435;DHT22;31183;47.404;8.500;2023-04-03T05:18:15;5.70;93.70
45435;DHT22;31183;47.404;8.500;2023-04-03T05:20:41;5.70;93.20
45435;DHT22;31183;47.404;8.500;2023-04-03T05:23:10;5.50;92.40
45435;DHT22;31183;47.404;8.500;2023-04-03T05:25:37;5.50;93.30
45435;DHT22;31183;47.404;8.500;2023-04-03T05:28:04;5.50;92.50
45435;DHT22;31183;47.404;8.500;2023-04-03T05:30:30;5.40;92.40
45435;DHT22;31183;47.404;8.500;2023-04-03T05:32:58;5.40;92.40
45435;DHT22;31183;47.404;8.500;2023-04-03T05:35:24;5.30;92.60
45435;DHT22;31183;47.404;8.500;2023-04-03T05:37:51;5.40;92.40
45435;DHT22;31183;47.404;8.500;2023-04-03T05:40:17;5.40;92.10
45435;DHT22;31183;47.404;8.500;2023-04-03T05:42:44;5.40;91.90
45435;DHT22;31183;47.404;8.500;2023-04-03T05:45:11;5.40;91.70
45435;DHT22;31183;47.404;8.500;2023-04-03T05:47:37;5.30;91.70
45435;DHT22;31183;47.404;8.500;2023-04-03T05:50:04;5.30;91.50
45435;DHT22;31183;47.404;8.500;2023-04-03T05:52:38;5.20;91.60
45435;DHT22;31183;47.404;8.500;2023-04-03T05:55:06;5.10;91.00
45435;DHT22;31183;47.404;8.500;2023-04-03T05:57:33;5.10;91.50
45435;DHT22;31183;47.404;8.500;2023-04-03T05:59:59;5.00;90.20
45435;DHT22;31183;47.404;8.500;2023-04-03T06:02:26;5.00;91.00
45435;DHT22;31183;47.404;8.500;2023-04-03T06:04:53;5.10;91.00
45435;DHT22;31183;47.404;8.500;2023-04-03T06:07:21;5.20;90.70
45435;DHT22;31183;47.404;8.500;2023-04-03T06:09:49;5.20;90.60
45435;DHT22;31183;47.404;8.500;2023-04-03T06:12:17;5.20;89.10
45435;DHT22;31183;47.404;8.500;2023-04-03T06:14:44;5.20;88.20
45435;DHT22;31183;47.404;8.500;2023-04-03T06:17:11;5.30;90.10
45435;DHT22;31183;47.404;8.500;2023-04-03T06:19:38;5.30;89.70
45435;DHT22;31183;47.404;8.500;2023-04-03T06:22:05;5.40;88.80
45435;DHT22;31183;47.404;8.500;2023-04-03T06:24:31;5.50;88.70
45435;DHT22;31183;47.404;8.500;2023-04-03T06:26:58;5.50;87.30
45435;DHT22;31183;47.404;8.500;2023-04-03T06:29:25;5.40;87.30
45435;DHT22;31183;47.404;8.500;2023-04-03T06:31:52;5.40;87.60
45435;DHT22;31183;47.404;8.500;2023-04-03T06:34:18;5.50;88.00
45435;DHT22;31183;47.404;8.500;2023-04-03T06:36:45;5.50;88.10
45435;DHT22;31183;47.404;8.500;2023-04-03T06:39:13;5.50;85.30
45435;DHT22;31183;47.404;8.500;2023-04-03T06:41:40;5.40;85.80
45435;DHT22;31183;47.404;8.500;2023-04-03T06:44:06;5.50;87.30
45435;DHT22;31183;47.404;8.500;2023-04-03T06:46:37;5.60;87.80
45435;DHT22;31183;47.404;8.500;2023-04-03T06:49:04;5.70;86.80
45435;DHT22;31183;47.404;8.500;2023-04-03T06:51:33;5.60;83.60
45435;DHT22;31183;47.404;8.500;2023-04-03T06:54:01;5.60;85.00
45435;DHT22;31183;47.404;8.500;2023-04-03T06:56:27;5.70;84.90
45435;DHT22;31183;47.404;8.500;2023-04-03T06:58:54;5.70;83.80
45435;DHT22;31183;47.404;8.500;2023-04-03T07:01:22;5.70;84.30
45435;DHT22;31183;47.404;8.500;2023-04-03T07:03:49;5.70;85.40
45435;DHT22;31183;47.404;8.500;2023-04-03T07:06:16;5.70;84.00
45435;DHT22;31183;47.404;8.500;2023-04-03T07:08:43;5.70;85.30
45435;DHT22;31183;47.404;8.500;2023-04-03T07:11:10;5.80;85.60
45435;DHT22;31183;47.404;8.500;2023-04-03T07:13:37;5.90;85.70
45435;DHT22;31183;47.404;8.500;2023-04-03T07:16:04;6.00;84.70
45435;DHT22;31183;47.404;8.500;2023-04-03T07:18:32;6.00;83.50
45435;DHT22;31183;47.404;8.500;2023-04-03T07:20:58;6.00;84.00
45435;DHT22;31183;47.404;8.500;2023-04-03T07:23:25;6.00;82.50
45435;DHT22;31183;47.404;8.500;2023-04-03T07:25:51;6.10;84.70
45435;DHT22;31183;47.404;8.500;2023-04-03T07:28:18;6.20;82.20
45435;DHT22;31183;47.404;8.500;2023-04-03T07:30:50;6.30;85.40
45435;DHT22;31183;47.404;8.500;2023-04-03T07:33:17;6.30;84.00
45435;DHT22;31183;47.404;8.500;2023-04-03T07:35:44;6.40;84.10
45435;DHT22;31183;47.404;8.500;2023-04-03T07:38:11;6.40;82.40
45435;DHT22;31183;47.404;8.500;2023-04-03T07:40:38;6.40;81.50
45435;DHT22;31183;47.404;8.500;2023-04-03T07:43:05;6.40;82.40
45435;DHT22;31183;47.404;8.500;2023-04-03T07:45:34;6.40;82.70
45435;DHT22;31183;47.404;8.500;2023-04-03T07:48:01;6.50;81.40
45435;DHT22;31183;47.404;8.500;2023-04-03T07:50:28;6.70;83.50
45435;DHT22;31183;47.404;8.500;2023-04-03T07:52:56;6.80;80.80
45435;DHT22;31183;47.404;8.500;2023-04-03T07:55:24;6.80;78.30
45435;DHT22;31183;47.404;8.500;2023-04-03T07:57:50;6.70;79.70
45435;DHT22;31183;47.404;8.500;2023-04-03T08:00:17;6.70;79.70
45435;DHT22;31183;47.404;8.500;2023-04-03T08:02:45;6.80;80.00
45435;DHT22;31183;47.404;8.500;2023-04-03T08:05:18;7.00;79.20
45435;DHT22;31183;47.404;8.500;2023-04-03T08:07:45;7.10;79.10
45435;DHT22;31183;47.404;8.500;2023-04-03T08:10:13;7.20;79.00
45435;DHT22;31183;47.404;8.500;2023-04-03T08:12:39;7.30;77.80
45435;DHT22;31183;47.404;8.500;2023-04-03T08:15:06;7.30;79.20
45435;DHT22;31183;47.404;8.500;2023-04-03T08:17:33;7.30;78.70
45435;DHT22;31183;47.404;8.500;2023-04-03T08:20:01;7.30;78.00
45435;DHT22;31183;47.404;8.500;2023-04-03T08:22:27;7.40;78.50
45435;DHT22;31183;47.404;8.500;2023-04-03T08:24:54;7.40;75.90
45435;DHT22;31183;47.404;8.500;2023-04-03T08:27:25;7.40;76.90
45435;DHT22;31183;47.404;8.500;2023-04-03T08:29:53;7.40;76.30
45435;DHT22;31183;47.404;8.500;2023-04-03T08:32:19;7.40;77.70
45435;DHT22;31183;47.404;8.500;2023-04-03T08:34:46;7.50;77.10
45435;DHT22;31183;47.404;8.500;2023-04-03T08:37:13;7.40;77.30
45435;DHT22;31183;47.404;8.500;2023-04-03T08:39:39;7.40;78.10
45435;DHT22;31183;47.404;8.500;2023-04-03T08:42:12;7.40;77.70
45435;DHT22;31183;47.404;8.500;2023-04-03T08:49:42;7.60;76.80
45435;DHT22;31183;47.404;8.500;2023-04-03T08:52:16;7.50;78.20
45435;DHT22;31183;47.404;8.500;2023-04-03T08:54:57;7.50;77.00
45435;DHT22;31183;47.404;8.500;2023-04-03T08:57:36;7.50;76.90
45435;DHT22;31183;47.404;8.500;2023-04-03T09:00:06;7.30;77.10
45435;DHT22;31183;47.404;8.500;2023-04-03T09:02:35;7.20;76.30
45435;DHT22;31183;47.404;8.500;2023-04-03T09:05:13;7.20;77.90
45435;DHT22;31183;47.404;8.500;2023-04-03T09:07:42;7.10;75.90
45435;DHT22;31183;47.404;8.500;2023-04-03T09:10:10;7.00;76.20
45435;DHT22;31183;47.404;8.500;2023-04-03T09:12:39;6.90;76.20
45435;DHT22;31183;47.404;8.500;2023-04-03T09:15:10;6.70;76.00
45435;DHT22;31183;47.404;8.500;2023-04-03T09:22:56;6.90;79.00
45435;DHT22;31183;47.404;8.500;2023-04-03T09:25:25;6.90;77.70
45435;DHT22;31183;47.404;8.500;2023-04-03T09:27:52;6.80;76.70
45435;DHT22;31183;47.404;8.500;2023-04-03T09:30:20;6.80;76.50
45435;DHT22;31183;47.404;8.500;2023-04-03T09:32:48;6.80;76.50
45435;DHT22;31183;47.404;8.500;2023-04-03T09:40:36;7.10;79.20
45435;DHT22;31183;47.404;8.500;2023-04-03T09:45:44;7.10;75.90
45435;DHT22;31183;47.404;8.500;2023-04-03T09:53:27;7.00;77.30
45435;DHT22;31183;47.404;8.500;2023-04-03T09:55:54;7.20;76.80
45435;DHT22;31183;47.404;8.500;2023-04-03T09:58:25;7.40;77.90
45435;DHT22;31183;47.404;8.500;2023-04-03T10:00:57;7.40;77.10
45435;DHT22;31183;47.404;8.500;2023-04-03T10:03:26;7.50;76.90
45435;DHT22;31183;47.404;8.500;2023-04-03T10:05:53;7.30;74.50
45435;DHT22;31183;47.404;8.500;2023-04-03T10:08:22;7.00;78.60
45435;DHT22;31183;47.404;8.500;2023-04-03T10:13:32;7.20;78.30
45435;DHT22;31183;47.404;8.500;2023-04-03T10:16:09;7.20;76.90
45435;DHT22;31183;47.404;8.500;2023-04-03T10:18:53;7.00;78.10
45435;DHT22;31183;47.404;8.500;2023-04-03T10:21:29;6.90;78.00
45435;DHT22;31183;47.404;8.500;2023-04-03T10:24:09;7.00;79.70
45435;DHT22;31183;47.404;8.500;2023-04-03T10:29:10;6.70;79.40
45435;DHT22;31183;47.404;8.500;2023-04-03T10:31:43;6.80;78.70
45435;DHT22;31183;47.404;8.500;2023-04-03T10:34:17;7.00;79.60
45435;DHT22;31183;47.404;8.500;2023-04-03T10:52:37;7.00;75.80
45435;DHT22;31183;47.404;8.500;2023-04-03T10:57:46;7.20;78.40
45435;DHT22;31183;47.404;8.500;2023-04-03T11:00:21;6.90;78.80
45435;DHT22;31183;47.404;8.500;2023-04-03T11:02:59;6.80;80.70
45435;DHT22;31183;47.404;8.500;2023-04-03T11:05:45;6.70;81.20
45435;DHT22;31183;47.404;8.500;2023-04-03T11:08:36;6.80;80.00
45435;DHT22;31183;47.404;8.500;2023-04-03T11:11:03;7.10;78.40
45435;DHT22;31183;47.404;8.500;2023-04-03T11:13:34;7.20;79.00
45435;DHT22;31183;47.404;8.500;2023-04-03T11:16:02;7.20;78.50
45435;DHT22;31183;47.404;8.500;2023-04-03T11:18:37;7.30;78.80
45435;DHT22;31183;47.404;8.500;2023-04-03T11:21:12;7.30;80.10
45435;DHT22;31183;47.404;8.500;2023-04-03T11:23:40;7.30;79.50
45435;DHT22;31183;47.404;8.500;2023-04-03T11:26:16;7.30;80.90
45435;DHT22;31183;47.404;8.500;2023-04-03T11:28:44;7.20;81.10
45435;DHT22;31183;47.404;8.500;2023-04-03T11:39:06;7.50;80.10
45435;DHT22;31183;47.404;8.500;2023-04-03T11:41:36;7.30;79.80
45435;DHT22;31183;47.404;8.500;2023-04-03T11:51:59;6.80;81.30
45435;DHT22;31183;47.404;8.500;2023-04-03T11:54:45;6.90;81.10
45435;DHT22;31183;47.404;8.500;2023-04-03T11:59:57;7.10;82.20
45435;DHT22;31183;47.404;8.500;2023-04-03T12:02:35;7.00;81.20
45435;DHT22;31183;47.404;8.500;2023-04-03T12:05:29;7.00;81.20
45435;DHT22;31183;47.404;8.500;2023-04-03T12:13:41;7.20;81.40
45435;DHT22;31183;47.404;8.500;2023-04-03T12:21:20;7.40;79.80
45435;DHT22;31183;47.404;8.500;2023-04-03T12:29:23;7.30;80.30
45435;DHT22;31183;47.404;8.500;2023-04-03T12:40:01;7.50;80.40
45435;DHT22;31183;47.404;8.500;2023-04-03T12:42:53;7.60;79.80
45435;DHT22;31183;47.404;8.500;2023-04-03T12:45:23;7.70;79.70
45435;DHT22;31183;47.404;8.500;2023-04-03T12:47:51;7.70;80.20
45435;DHT22;31183;47.404;8.500;2023-04-03T12:52:47;8.00;81.60
45435;DHT22;31183;47.404;8.500;2023-04-03T12:55:17;8.10;79.50
45435;DHT22;31183;47.404;8.500;2023-04-03T12:57:44;8.00;79.60
45435;DHT22;31183;47.404;8.500;2023-04-03T13:00:21;7.90;79.30
45435;DHT22;31183;47.404;8.500;2023-04-03T13:02:48;7.90;80.60
45435;DHT22;31183;47.404;8.500;2023-04-03T13:05:16;8.00;78.00
45435;DHT22;31183;47.404;8.500;2023-04-03T13:07:44;8.00;78.80
45435;DHT22;31183;47.404;8.500;2023-04-03T13:10:15;8.00;77.00
45435;DHT22;31183;47.404;8.500;2023-04-03T13:12:49;8.00;77.60
45435;DHT22;31183;47.404;8.500;2023-04-03T13:15:24;8.10;77.80
45435;DHT22;31183;47.404;8.500;2023-04-03T13:17:51;8.10;76.00
45435;DHT22;31183;47.404;8.500;2023-04-03T13:20:26;8.00;76.40
45435;DHT22;31183;47.404;8.500;2023-04-03T13:22:55;8.00;75.70
45435;DHT22;31183;47.404;8.500;2023-04-03T13:25:23;7.90;76.30
45435;DHT22;31183;47.404;8.500;2023-04-03T13:27:50;7.80;75.50
45435;DHT22;31183;47.404;8.500;2023-04-03T13:30:24;7.70;76.10
45435;DHT22;31183;47.404;8.500;2023-04-03T13:32:51;7.70;77.90
45435;DHT22;31183;47.404;8.500;2023-04-03T13:35:53;7.60;77.10
45435;DHT22;31183;47.404;8.500;2023-04-03T13:40:47;7.50;77.70
45435;DHT22;31183;47.404;8.500;2023-04-03T13:43:17;7.50;79.10
45435;DHT22;31183;47.404;8.500;2023-04-03T13:46:30;7.40;78.70
45435;DHT22;31183;47.404;8.500;2023-04-03T13:48:39;7.50;79.80
45435;DHT22;31183;47.404;8.500;2023-04-03T13:51:16;7.50;79.50
45435;DHT22;31183;47.404;8.500;2023-04-03T13:53:44;7.50;79.00
45435;DHT22;31183;47.404;8.500;2023-04-03T13:56:25;7.70;79.20
45435;DHT22;31183;47.404;8.500;2023-04-03T13:58:57;7.80;78.50
45435;DHT22;31183;47.404;8.500;2023-04-03T14:01:24;7.80;78.70
45435;DHT22;31183;47.404;8.500;2023-04-03T14:03:53;7.80;79.20
45435;DHT22;31183;47.404;8.500;2023-04-03T14:06:20;7.80;78.90
45435;DHT22;31183;47.404;8.500;2023-04-03T14:08:47;7.70;77.90
45435;DHT22;31183;47.404;8.500;2023-04-03T14:11:16;7.60;78.10
45435;DHT22;31183;47.404;8.500;2023-04-03T14:13:44;7.60;79.10
45435;DHT22;31183;47.404;8.500;2023-04-03T14:16:14;7.60;79.00
45435;DHT22;31183;47.404;8.500;2023-04-03T14:18:43;7.50;77.70
45435;DHT22;31183;47.404;8.500;2023-04-03T14:21:11;7.30;76.70
45435;DHT22;31183;47.404;8.500;2023-04-03T14:23:38;7.20;77.30
45435;DHT22;31183;47.404;8.500;2023-04-03T14:26:08;7.20;77.60
45435;DHT22;31183;47.404;8.500;2023-04-03T14:28:36;7.20;77.10
45435;DHT22;31183;47.404;8.500;2023-04-03T14:31:03;7.20;76.50
45435;DHT22;31183;47.404;8.500;2023-04-03T14:33:30;7.10;77.70
45435;DHT22;31183;47.404;8.500;2023-04-03T14:36:01;7.10;77.20
45435;DHT22;31183;47.404;8.500;2023-04-03T14:38:29;7.10;78.10
45435;DHT22;31183;47.404;8.500;2023-04-03T14:40:57;7.20;77.40
45435;DHT22;31183;47.404;8.500;2023-04-03T14:43:39;7.10;76.00
45435;DHT22;31183;47.404;8.500;2023-04-03T14:46:19;7.10;76.40
45435;DHT22;31183;47.404;8.500;2023-04-03T14:48:47;7.10;75.40
45435;DHT22;31183;47.404;8.500;2023-04-03T14:51:14;7.00;75.70
45435;DHT22;31183;47.404;8.500;2023-04-03T14:53:41;7.00;75.90
45435;DHT22;31183;47.404;8.500;2023-04-03T14:56:12;7.00;75.60
45435;DHT22;31183;47.404;8.500;2023-04-03T14:58:39;6.90;75.80
45435;DHT22;31183;47.404;8.500;2023-04-03T15:01:06;6.90;75.90
45435;DHT22;31183;47.404;8.500;2023-04-03T15:03:32;7.00;76.30
45435;DHT22;31183;47.404;8.500;2023-04-03T15:05:59;7.00;76.80
45435;DHT22;31183;47.404;8.500;2023-04-03T15:08:26;7.00;76.10
45435;DHT22;31183;47.404;8.500;2023-04-03T15:10:53;7.10;76.60
45435;DHT22;31183;47.404;8.500;2023-04-03T15:13:22;7.00;74.10
45435;DHT22;31183;47.404;8.500;2023-04-03T15:15:49;6.90;74.50
45435;DHT22;31183;47.404;8.500;2023-04-03T15:18:23;7.00;76.10
45435;DHT22;31183;47.404;8.500;2023-04-03T15:20:50;7.00;75.40
45435;DHT22;31183;47.404;8.500;2023-04-03T15:23:16;7.00;77.60
45435;DHT22;31183;47.404;8.500;2023-04-03T15:25:44;7.10;75.50
45435;DHT22;31183;47.404;8.500;2023-04-03T15:28:15;7.00;75.70
45435;DHT22;31183;47.404;8.500;2023-04-03T15:30:44;7.00;75.20
45435;DHT22;31183;47.404;8.500;2023-04-03T15:33:10;7.10;75.40
45435;DHT22;31183;47.404;8.500;2023-04-03T15:35:37;7.00;74.90
45435;DHT22;31183;47.404;8.500;2023-04-03T15:38:04;7.00;74.50
45435;DHT22;31183;47.404;8.500;2023-04-03T15:40:30;7.00;75.40
45435;DHT22;31183;47.404;8.500;2023-04-03T15:42:57;7.00;77.80
45435;DHT22;31183;47.404;8.500;2023-04-03T15:45:23;6.90;75.40
45435;DHT22;31183;47.404;8.500;2023-04-03T15:47:50;6.90;75.60
45435;DHT22;31183;47.404;8.500;2023-04-03T15:50:17;6.90;75.80
45435;DHT22;31183;47.404;8.500;2023-04-03T15:52:43;6.90;75.40
45435;DHT22;31183;47.404;8.500;2023-04-03T15:55:10;6.90;76.00
45435;DHT22;31183;47.404;8.500;2023-04-03T15:57:36;6.80;75.40
45435;DHT22;31183;47.404;8.500;2023-04-03T16:00:08;6.80;75.70
45435;DHT22;31183;47.404;8.500;2023-04-03T16:02:34;6.80;75.50
45435;DHT22;31183;47.404;8.500;2023-04-03T16:05:02;6.80;76.00
45435;DHT22;31183;47.404;8.500;2023-04-03T16:07:28;6.80;75.40
45435;DHT22;31183;47.404;8.500;2023-04-03T16:09:55;6.70;75.70
45435;DHT22;31183;47.404;8.500;2023-04-03T16:12:21;6.70;76.00
45435;DHT22;31183;47.404;8.500;2023-04-03T16:14:48;6.70;76.60
45435;DHT22;31183;47.404;8.500;2023-04-03T16:17:14;6.70;76.10
45435;DHT22;31183;47.404;8.500;2023-04-03T16:19:41;6.70;75.90
45435;DHT22;31183;47.404;8.500;2023-04-03T16:22:07;6.70;75.90
45435;DHT22;31183;47.404;8.500;2023-04-03T16:24:34;6.70;78.10
45435;DHT22;31183;47.404;8.500;2023-04-03T16:27:01;6.80;77.30
45435;DHT22;31183;47.404;8.500;2023-04-03T16:29:28;6.80;75.70
45435;DHT22;31183;47.404;8.500;2023-04-03T16:31:54;6.80;77.80
45435;DHT22;31183;47.404;8.500;2023-04-03T16:34:22;6.80;74.90
45435;DHT22;31183;47.404;8.500;2023-04-03T16:36:49;6.80;75.60
45435;DHT22;31183;47.404;8.500;2023-04-03T16:39:16;6.80;76.40
45435;DHT22;31183;47.404;8.500;2023-04-03T16:41:42;6.80;76.10
45435;DHT22;31183;47.404;8.500;2023-04-03T16:44:09;6.80;74.80
45435;DHT22;31183;47.404;8.500;2023-04-03T16:46:35;6.70;74.20
45435;DHT22;31183;47.404;8.500;2023-04-03T16:49:02;6.70;74.20
45435;DHT22;31183;47.404;8.500;2023-04-03T16:51:29;6.70;74.20
45435;DHT22;31183;47.404;8.500;2023-04-03T16:53:56;6.60;74.50
45435;DHT22;31183;47.404;8.500;2023-04-03T16:56:23;6.50;74.20
45435;DHT22;31183;47.404;8.500;2023-04-03T16:58:49;6.50;74.60
45435;DHT22;31183;47.404;8.500;2023-04-03T17:01:17;6.50;75.60
45435;DHT22;31183;47.404;8.500;2023-04-03T17:03:44;6.50;77.70
45435;DHT22;31183;47.404;8.500;2023-04-03T17:06:12;6.60;75.80
45435;DHT22;31183;47.404;8.500;2023-04-03T17:08:42;6.60;74.30
45435;DHT22;31183;47.404;8.500;2023-04-03T17:11:09;6.50;75.00
45435;DHT22;31183;47.404;8.500;2023-04-03T17:13:36;6.50;75.30
45435;DHT22;31183;47.404;8.500;2023-04-03T17:16:04;6.50;77.10
45435;DHT22;31183;47.404;8.500;2023-04-03T17:18:32;6.60;76.40
45435;DHT22;31183;47.404;8.500;2023-04-03T17:20:59;6.60;78.00
45435;DHT22;31183;47.404;8.500;2023-04-03T17:23:26;6.60;78.00
45435;DHT22;31183;47.404;8.500;2023-04-03T17:25:54;6.60;77.00
45435;DHT22;31183;47.404;8.500;2023-04-03T17:28:21;6.60;77.80
45435;DHT22;31183;47.404;8.500;2023-04-03T17:30:54;6.60;77.80
45435;DHT22;31183;47.404;8.500;2023-04-03T17:33:20;6.60;77.50